KABI

Abilene Regional Airport

Abilene, Texas, USA
METAR KABI 170152Z 17014KT 10SM BKN018 06/04 A2992 RMK AO2 SLP132 T00560044
Observed Flight Rules
Dec-17 @ 01:52 UTC (23 minutes ago) Marginal Visual Flight Rules
Wind Visibility Clouds
170° at 14 knots 10 miles
  • Broken at 1,800' AGL
Temperatures Readings
Current 6°C / 43°F
Dewpoint 4°C / 39°F
Humidity 87%
Altimeter 29.92" Hg
Pressure 1013.2 hPa
Elevation 548
METAR KABI 170152Z 17014KT 10SM BKN018 06/04 A2992 RMK AO2 SLP132 T00560044
Observed Flight Rules
Dec-17 @ 01:52 UTC
(23 minutes ago)
MVFR
Wind Visibility
170° at 14 knots 10 miles
Clouds
  • Broken at 1,800' AGL
Temperature Dewpoint
6°C / 43°F 4°C / 39°F
Humidity Altimeter Pressure
87% 29.92" Hg 1013.2 hPa